KMYFKPSP

Guest
Details From KMYF - Montgomery Fld
To KPSP - Palm Springs Intl
Flight Number -
Tags generated
Created
Modified
Stats Distance 69 nm / 128 km
Max Altitude 2,500 ft / 762 m
Waypoints 3
Social Downloads 0
Likes 0
Share VATSIM

Download

Looking for another format? Having issues loading an existing format? Contact us
Advertisement - Login to hide

Notes

Basic altitude profile: - Ascent Rate: 2500ft/min - Ascent Speed: 70kts - Cruise Altitude: 35000ft - Cruise Speed: 100kts - Descent Rate: 1500ft/min - Descent Speed: 80kts Options: - Use NATs: yes - Use PACOTS: yes - Use low airways: yes - Use high airways: yes

Route

KMYF HAPPE KPSP

ID Type Via Altitude Latitude Longitude Leg Dist Tot Dist Heading (true) Name
O KMYF APT - 0 ft / 0 m 32.81574˚ -117.13970˚ - 0 nm - Montgomery Fld
HAPPE FIX - 2,500 ft / 762 m 33.67163˚ -116.65659˚ 56 nm 56 nm 25° / 25° -
O KPSP APT - 0 ft / 0 m 33.82968˚ -116.50622˚ 12 nm 68 nm 38° / 38° Palm Springs Intl

Altitude Profile

Advertisement - Login to hide

KMYF

Details ICAO KMYF
Name Montgomery Fld
Region United States
Timezone America/Los_Angeles (UTC-7.0)
Stats Elevation 427 ft / 130 m (AMSL)
Location 32.815737° -117.139705°
Runways 3
Magnetic Variation 11.492° E

METAR

KMYF 250400Z AUTO 28006KT 10SM OVC027 16/11 A3009 RMK AO2 T01560111

Decode

TAF

Not found

Departure Runways

ID Width Length Bearing (true) Bearing (mag) Surface Threshold Offset Overrun Length
05 151 ft / 46 m 3,403 ft / 1,037 m 64.89° 53.40° Asphalt 390 ft / 119 m 0 ft / 0 m
10L 151 ft / 46 m 4,581 ft / 1,396 m 115.10° 103.61° Asphalt 0 ft / 0 m 0 ft / 0 m
10R 59 ft / 18 m 3,404 ft / 1,038 m 115.00° 103.51° Asphalt 0 ft / 0 m 0 ft / 0 m
23 151 ft / 46 m 3,403 ft / 1,037 m 244.89° 233.40° Asphalt 0 ft / 0 m 0 ft / 0 m
28L 59 ft / 18 m 3,404 ft / 1,038 m 295.00° 283.51° Asphalt 0 ft / 0 m 0 ft / 0 m
28R 151 ft / 46 m 4,581 ft / 1,396 m 295.10° 283.61° Asphalt 1,175 ft / 358 m 0 ft / 0 m

KPSP

Details ICAO KPSP (PSP)
Name Palm Springs Intl
Region United States
Timezone America/Los_Angeles (UTC-7.0)
Stats Elevation 477 ft / 145 m (AMSL)
Location 33.829677° -116.506218°
Runways 2
Magnetic Variation 11.541° E

METAR

KPSP 250353Z 29021G30KT 10SM CLR 25/11 A2989 RMK AO2 PK WND 32027/0350 SLP118 T02500106

Decode

TAF

TAF AMD KPSP 250332Z 2504/2524 31015G25KT P6SM SKC FM250800 33010KT P6SM SKC FM251200 VRB06KT P6SM SKC FM251700 31015G25KT P6SM SKC FM252100 32020G30KT P6SM SKC

Decode

Destination Runways

ID Width Length Bearing (true) Bearing (mag) Surface Threshold Offset Overrun Length
13L 75 ft / 23 m 4,958 ft / 1,511 m 143.52° 131.98° Asphalt 0 ft / 0 m 151 ft / 46 m
13R 151 ft / 46 m 10,012 ft / 3,052 m 143.52° 131.98° Asphalt 2,999 ft / 914 m 200 ft / 61 m
31L 151 ft / 46 m 10,012 ft / 3,052 m 323.53° 311.99° Asphalt 1,499 ft / 457 m 200 ft / 61 m
31R 75 ft / 23 m 4,958 ft / 1,511 m 323.53° 311.99° Asphalt 0 ft / 0 m 151 ft / 46 m

Popular Alternatives